createdAt,value
2023-01-01T00:01:09.751Z,11.10
2023-01-01T00:04:14.298Z,11.23
2023-01-01T00:07:16.728Z,11.34
2023-01-01T00:10:28.229Z,11.38
2023-01-01T00:13:30.520Z,11.19
2023-01-01T00:16:32.965Z,11.15
2023-01-01T00:19:35.328Z,11.18
2023-01-01T00:22:54.465Z,11.02
2023-01-01T00:25:57.738Z,11.08
2023-01-01T00:29:00.165Z,11.07
2023-01-01T00:32:02.544Z,11.00
2023-01-01T00:35:05.143Z,11.00
2023-01-01T00:38:08.139Z,10.92
2023-01-01T00:41:10.797Z,11.13
2023-01-01T00:44:13.222Z,11.02
2023-01-01T00:47:15.584Z,11.15
2023-01-01T00:50:18.166Z,11.16
2023-01-01T00:53:21.235Z,11.08
2023-01-01T00:56:23.583Z,11.15
2023-01-01T00:59:28.878Z,11.34
2023-01-01T01:02:31.929Z,11.27
2023-01-01T01:05:37.449Z,11.39
2023-01-01T01:08:41.660Z,11.34
2023-01-01T01:11:43.969Z,11.46
2023-01-01T01:14:47.437Z,11.18
2023-01-01T01:17:49.822Z,11.31
2023-01-01T01:20:53.917Z,11.31
2023-01-01T01:23:59.906Z,11.33
2023-01-01T01:27:02.334Z,11.21
2023-01-01T01:30:05.112Z,11.20
2023-01-01T01:33:07.581Z,11.17
2023-01-01T01:36:10.531Z,11.04
2023-01-01T01:39:13.049Z,11.07
2023-01-01T01:42:18.996Z,11.13
2023-01-01T01:45:21.483Z,11.20
2023-01-01T01:48:24.709Z,11.04
2023-01-01T01:51:31.129Z,11.16
2023-01-01T01:54:33.545Z,11.06
2023-01-01T01:57:37.591Z,10.98
2023-01-01T02:00:39.948Z,11.01
2023-01-01T02:04:00.970Z,11.22
2023-01-01T02:07:03.347Z,11.23
2023-01-01T02:10:06.158Z,11.06
2023-01-01T02:13:08.569Z,11.01
2023-01-01T02:16:54.856Z,11.17
2023-01-01T02:20:35.507Z,11.26
2023-01-01T02:24:06.911Z,11.27
2023-01-01T02:27:22.967Z,11.22
2023-01-01T02:30:25.315Z,11.36
2023-01-01T02:33:27.617Z,11.33
2023-01-01T02:36:32.675Z,11.47
2023-01-01T02:39:38.555Z,11.51
2023-01-01T02:42:41.351Z,11.56
2023-01-01T02:45:43.726Z,11.73
2023-01-01T02:48:47.434Z,11.81
2023-01-01T02:52:01.339Z,11.77
2023-01-01T02:55:17.050Z,11.70
2023-01-01T02:58:44.075Z,11.75
2023-01-01T03:01:50.440Z,11.79
2023-01-01T03:05:14.325Z,11.80
2023-01-01T03:08:18.960Z,11.77
2023-01-01T03:11:23.288Z,11.82
2023-01-01T03:14:25.478Z,11.78
2023-01-01T03:17:36.891Z,11.76
2023-01-01T03:20:42.275Z,11.88
2023-01-01T03:23:50.309Z,11.76
2023-01-01T03:26:56.564Z,11.65
2023-01-01T03:30:02.920Z,11.76
2023-01-01T03:33:09.732Z,11.70
2023-01-01T03:36:23.076Z,11.91
2023-01-01T03:39:46.803Z,11.84
2023-01-01T03:42:53.239Z,11.86
2023-01-01T03:45:57.152Z,11.81
2023-01-01T03:49:03.669Z,11.73
2023-01-01T03:52:24.315Z,11.70
2023-01-01T03:55:37.845Z,11.66
2023-01-01T03:58:50.382Z,11.65
2023-01-01T04:01:58.387Z,11.65
2023-01-01T04:05:02.766Z,11.64
2023-01-01T04:08:05.486Z,11.69
2023-01-01T04:11:39.633Z,11.71
2023-01-01T04:14:43.189Z,11.47
2023-01-01T04:17:45.784Z,11.42
2023-01-01T04:20:48.104Z,11.17
2023-01-01T04:23:50.431Z,11.40
2023-01-01T04:26:53.646Z,11.32
2023-01-01T04:29:56.055Z,11.29
2023-01-01T04:32:58.670Z,11.23
2023-01-01T04:36:09.305Z,11.34
2023-01-01T04:39:11.733Z,11.14
2023-01-01T04:42:14.032Z,11.15
2023-01-01T04:45:16.576Z,11.00
2023-01-01T04:48:18.888Z,11.12
2023-01-01T04:51:22.254Z,11.18
2023-01-01T04:54:24.609Z,11.02
2023-01-01T04:57:26.845Z,10.79
2023-01-01T05:00:29.197Z,10.92
2023-01-01T05:03:31.867Z,10.92
2023-01-01T05:06:34.293Z,10.91
2023-01-01T05:09:36.915Z,10.98
2023-01-01T05:12:39.194Z,11.17
2023-01-01T05:15:41.519Z,11.21
2023-01-01T05:18:44.303Z,11.01
2023-01-01T05:21:46.745Z,11.18
2023-01-01T05:24:48.975Z,10.93
2023-01-01T05:27:51.776Z,11.04
2023-01-01T05:30:54.548Z,11.18
2023-01-01T05:36:59.790Z,11.05
2023-01-01T05:40:02.155Z,11.05
2023-01-01T05:43:04.481Z,11.17
2023-01-01T05:46:13.165Z,11.24
2023-01-01T05:49:15.608Z,11.14
2023-01-01T05:52:21.608Z,11.10
2023-01-01T05:55:29.111Z,11.22
2023-01-01T05:58:32.306Z,11.20
2023-01-01T06:01:38.790Z,11.34
2023-01-01T06:04:45.674Z,11.31
2023-01-01T06:07:48.758Z,11.39
2023-01-01T06:10:59.023Z,11.39
2023-01-01T06:14:02.039Z,11.13
2023-01-01T06:17:04.459Z,11.26
2023-01-01T06:20:07.380Z,11.19
2023-01-01T06:23:09.794Z,10.81
2023-01-01T06:26:18.884Z,11.11
2023-01-01T06:29:21.189Z,11.18
2023-01-01T06:32:23.656Z,11.15
2023-01-01T06:35:26.060Z,11.08
2023-01-01T06:38:28.454Z,11.07
2023-01-01T06:41:31.116Z,11.00
2023-01-01T06:44:33.444Z,11.00
2023-01-01T06:47:35.899Z,10.94
2023-01-01T06:50:38.255Z,11.06
2023-01-01T06:53:40.758Z,11.02
2023-01-01T06:56:43.146Z,10.89
2023-01-01T06:59:45.482Z,10.80
2023-01-01T07:02:50.913Z,10.84
2023-01-01T07:05:53.398Z,11.03
2023-01-01T07:08:55.801Z,11.01
2023-01-01T07:11:58.172Z,11.20
2023-01-01T07:15:00.489Z,11.15
2023-01-01T07:18:02.881Z,11.15
2023-01-01T07:21:06.995Z,11.10
2023-01-01T07:24:12.116Z,11.13
2023-01-01T07:27:14.498Z,11.16
2023-01-01T07:30:16.861Z,11.40
2023-01-01T07:33:21.319Z,11.28
2023-01-01T07:36:23.589Z,11.39
2023-01-01T07:39:25.900Z,11.36
2023-01-01T07:42:30.786Z,11.42
2023-01-01T07:45:34.412Z,11.54
2023-01-01T07:48:40.181Z,11.40
2023-01-01T07:51:42.770Z,11.49
2023-01-01T07:54:45.455Z,11.83
2023-01-01T07:57:48.528Z,11.57
2023-01-01T08:00:50.903Z,11.72
2023-01-01T08:03:53.518Z,11.69
2023-01-01T08:06:55.978Z,11.62
2023-01-01T08:09:58.305Z,11.80
2023-01-01T08:13:01.705Z,11.79
2023-01-01T08:16:04.495Z,11.84
2023-01-01T08:19:06.910Z,11.75
2023-01-01T08:22:09.315Z,11.82
2023-01-01T08:25:12.463Z,11.75
2023-01-01T08:28:14.875Z,11.58
2023-01-01T08:31:17.263Z,11.67
2023-01-01T08:34:19.691Z,11.82
2023-01-01T08:37:22.626Z,11.78
2023-01-01T08:40:25.027Z,11.90
2023-01-01T08:43:27.409Z,11.87
2023-01-01T08:46:29.765Z,12.02
2023-01-01T08:49:32.889Z,12.21
2023-01-01T08:52:35.194Z,12.06
2023-01-01T08:55:37.520Z,12.39
2023-01-01T08:58:41.023Z,12.35
2023-01-01T09:01:43.434Z,12.39
2023-01-01T09:04:45.889Z,12.39
2023-01-01T09:07:48.336Z,12.24
2023-01-01T09:10:51.525Z,12.51
2023-01-01T09:13:55.063Z,12.48
2023-01-01T09:16:57.366Z,12.57
2023-01-01T09:19:59.662Z,12.62
2023-01-01T09:23:05.829Z,12.68
2023-01-01T09:26:10.236Z,12.53
2023-01-01T09:29:12.552Z,12.74
2023-01-01T09:32:16.407Z,12.73
2023-01-01T09:35:19.010Z,12.78
2023-01-01T09:38:21.408Z,13.04
2023-01-01T09:41:33.071Z,12.88
2023-01-01T09:45:02.676Z,12.98
2023-01-01T09:48:07.886Z,13.14
2023-01-01T09:51:14.831Z,13.22
2023-01-01T09:54:25.271Z,13.27
2023-01-01T09:57:31.847Z,13.15
2023-01-01T10:00:35.380Z,13.12
2023-01-01T10:03:48.441Z,13.10
2023-01-01T10:07:15.158Z,13.21
2023-01-01T10:10:31.797Z,13.13
2023-01-01T10:13:43.675Z,13.23
2023-01-01T10:16:47.860Z,13.16
2023-01-01T10:19:52.962Z,13.15
2023-01-01T10:22:58.938Z,13.18
2023-01-01T10:26:05.058Z,13.20
2023-01-01T10:29:10.103Z,13.01
2023-01-01T10:32:31.584Z,13.15
2023-01-01T10:35:52.895Z,13.10
2023-01-01T10:38:55.202Z,12.85
2023-01-01T10:41:58.343Z,12.90
2023-01-01T10:45:05.496Z,12.85
2023-01-01T10:48:15.631Z,12.97
2023-01-01T10:51:20.622Z,12.86
2023-01-01T10:54:32.133Z,12.95
2023-01-01T10:57:40.612Z,13.03
2023-01-01T11:00:43.973Z,13.22
2023-01-01T11:04:05.059Z,13.44
2023-01-01T11:07:08.675Z,13.20
2023-01-01T11:10:26.674Z,13.56
2023-01-01T11:13:31.209Z,13.47
2023-01-01T11:16:34.053Z,13.36
2023-01-01T11:19:39.364Z,13.38
2023-01-01T11:22:53.060Z,13.37
2023-01-01T11:26:18.266Z,13.43
2023-01-01T11:29:30.329Z,13.42
2023-01-01T11:32:35.910Z,13.35
2023-01-01T11:35:49.678Z,13.54
2023-01-01T11:39:08.445Z,13.66
2023-01-01T11:42:18.232Z,13.72
2023-01-01T11:45:24.886Z,13.63
2023-01-01T11:48:36.861Z,13.64
2023-01-01T11:51:39.126Z,13.78
2023-01-01T11:54:41.483Z,13.64
2023-01-01T11:57:50.955Z,13.66
2023-01-01T12:00:56.506Z,13.57
2023-01-01T12:04:09.760Z,13.57
2023-01-01T12:07:16.972Z,13.49
2023-01-01T12:10:24.144Z,13.59
2023-01-01T12:13:30.643Z,13.67
2023-01-01T12:16:48.896Z,13.61
2023-01-01T12:20:21.570Z,13.73
2023-01-01T12:23:24.000Z,13.52
2023-01-01T12:26:33.728Z,13.51
2023-01-01T12:30:00.726Z,13.60
2023-01-01T12:33:29.618Z,13.43
2023-01-01T12:36:59.572Z,13.46
2023-01-01T12:40:24.591Z,13.52
2023-01-01T12:43:27.388Z,13.55
2023-01-01T12:46:50.348Z,13.45
2023-01-01T12:50:04.689Z,13.42
2023-01-01T12:53:42.472Z,13.34
2023-01-01T12:57:09.182Z,13.38
2023-01-01T13:00:19.553Z,13.45
2023-01-01T13:03:44.788Z,13.38
2023-01-01T13:06:57.526Z,13.45
2023-01-01T13:10:05.879Z,13.39
2023-01-01T13:13:08.463Z,13.38
2023-01-01T13:16:13.881Z,13.36
2023-01-01T13:19:37.729Z,13.30
2023-01-01T13:22:43.197Z,13.36
2023-01-01T13:25:45.598Z,13.31
2023-01-01T13:28:56.882Z,13.34
2023-01-01T13:32:05.309Z,13.24
2023-01-01T13:35:16.661Z,13.31
2023-01-01T13:38:56.851Z,13.25
2023-01-01T13:41:59.209Z,13.13
2023-01-01T13:45:02.082Z,13.05
2023-01-01T13:48:34.058Z,13.05
2023-01-01T13:55:27.884Z,12.97
2023-01-01T13:58:48.203Z,12.98
2023-01-01T14:02:29.659Z,12.79
2023-01-01T14:05:37.526Z,12.84
2023-01-01T14:08:40.533Z,12.74
2023-01-01T14:11:43.023Z,12.74
2023-01-01T14:14:46.259Z,12.60
2023-01-01T14:17:49.666Z,12.52
2023-01-01T14:20:53.335Z,12.44
2023-01-01T14:23:58.174Z,12.44
2023-01-01T14:27:00.829Z,12.31
2023-01-01T14:30:03.755Z,12.33
2023-01-01T14:33:06.731Z,12.35
2023-01-01T14:36:27.737Z,12.24
2023-01-01T14:39:34.733Z,12.24
2023-01-01T14:42:37.810Z,12.25
2023-01-01T14:45:43.398Z,12.18
2023-01-01T14:48:47.225Z,12.19
2023-01-01T14:51:58.119Z,12.21
2023-01-01T14:55:01.127Z,12.13
2023-01-01T14:58:04.011Z,12.20
2023-01-01T15:01:26.596Z,12.07
2023-01-01T15:04:29.374Z,11.78
2023-01-01T15:07:32.355Z,11.86
2023-01-01T15:10:37.322Z,11.90
2023-01-01T15:13:39.823Z,11.81
2023-01-01T15:16:42.286Z,11.64
2023-01-01T15:19:47.269Z,11.82
2023-01-01T15:22:51.240Z,11.82
2023-01-01T15:25:53.604Z,11.73
2023-01-01T15:28:57.812Z,11.80
2023-01-01T15:32:11.042Z,11.90
2023-01-01T15:35:31.465Z,11.80
2023-01-01T15:38:34.952Z,11.80
2023-01-01T15:41:44.284Z,11.74
2023-01-01T15:44:46.763Z,11.93
2023-01-01T15:47:50.585Z,11.76
2023-01-01T15:50:52.876Z,11.77
2023-01-01T15:54:02.963Z,11.62
2023-01-01T15:57:22.077Z,11.66
2023-01-01T16:00:30.058Z,11.80
2023-01-01T16:03:33.904Z,11.74
2023-01-01T16:06:44.948Z,11.63
2023-01-01T16:09:53.412Z,11.57
2023-01-01T16:12:59.608Z,11.65
2023-01-01T16:16:03.946Z,11.74
2023-01-01T16:19:06.195Z,11.79
2023-01-01T16:22:10.754Z,11.67
2023-01-01T16:25:17.712Z,11.65
2023-01-01T16:28:20.159Z,11.69
2023-01-01T16:31:26.404Z,11.62
2023-01-01T16:34:28.786Z,11.65
2023-01-01T16:37:31.100Z,11.60
2023-01-01T16:40:37.669Z,11.47
2023-01-01T16:43:40.855Z,11.30
2023-01-01T16:46:44.580Z,11.28
2023-01-01T16:49:46.979Z,11.09
2023-01-01T16:52:49.476Z,11.18
2023-01-01T16:55:52.800Z,11.11
2023-01-01T16:59:02.611Z,10.99
2023-01-01T17:02:06.209Z,11.00
2023-01-01T17:05:13.224Z,11.01
2023-01-01T17:08:15.680Z,10.95
2023-01-01T17:11:19.077Z,10.93
2023-01-01T17:14:21.581Z,10.83
2023-01-01T17:17:23.893Z,10.75
2023-01-01T17:20:27.251Z,10.72
2023-01-01T17:23:29.719Z,10.75
2023-01-01T17:26:32.121Z,10.69
2023-01-01T17:29:34.488Z,10.66
2023-01-01T17:32:36.825Z,10.59
2023-01-01T17:35:39.375Z,10.40
2023-01-01T17:38:41.675Z,10.42
2023-01-01T17:41:45.241Z,10.38
2023-01-01T17:44:47.617Z,10.32
2023-01-01T17:47:49.879Z,10.29
2023-01-01T17:50:52.195Z,10.08
2023-01-01T17:53:55.675Z,10.07
2023-01-01T17:57:03.500Z,9.96
2023-01-01T18:00:10.159Z,9.97
2023-01-01T18:03:15.944Z,10.03
2023-01-01T18:06:18.825Z,9.94
2023-01-01T18:09:22.409Z,10.00
2023-01-01T18:12:24.774Z,9.82
2023-01-01T18:15:27.293Z,9.80
2023-01-01T18:18:33.647Z,9.79
2023-01-01T18:21:36.410Z,9.71
2023-01-01T18:24:38.837Z,9.65
2023-01-01T18:27:41.181Z,9.55
2023-01-01T18:30:43.613Z,9.47
2023-01-01T18:33:47.645Z,9.34
2023-01-01T18:36:50.100Z,9.32
2023-01-01T18:39:52.796Z,9.28
2023-01-01T18:42:59.743Z,9.19
2023-01-01T18:46:02.462Z,9.26
2023-01-01T18:49:09.929Z,9.22
2023-01-01T18:52:23.056Z,9.18
2023-01-01T18:55:28.135Z,8.81
2023-01-01T18:58:32.887Z,8.82
2023-01-01T19:01:36.130Z,8.95
2023-01-01T19:04:38.639Z,8.96
2023-01-01T19:07:41.158Z,8.92
2023-01-01T19:10:47.530Z,9.04
2023-01-01T19:13:54.285Z,9.21
2023-01-01T19:16:58.711Z,9.16
2023-01-01T19:20:01.133Z,9.25
2023-01-01T19:23:27.508Z,9.21
2023-01-01T19:26:43.968Z,9.07
2023-01-01T19:29:48.117Z,8.99
2023-01-01T19:32:50.562Z,9.15
2023-01-01T19:35:53.167Z,8.91
2023-01-01T19:38:55.595Z,8.94
2023-01-01T19:42:03.896Z,9.08
2023-01-01T19:45:08.411Z,9.06
2023-01-01T19:48:10.806Z,9.02
2023-01-01T19:51:13.157Z,8.99
2023-01-01T19:54:15.568Z,9.11
2023-01-01T19:57:18.923Z,9.38
2023-01-01T20:00:21.440Z,9.24
2023-01-01T20:03:52.644Z,9.22
2023-01-01T20:06:46.313Z,9.14
2023-01-01T20:09:48.606Z,9.08
2023-01-01T20:12:51.112Z,8.99
2023-01-01T20:15:53.587Z,9.03
2023-01-01T20:18:55.990Z,8.95
2023-01-01T20:22:17.765Z,8.97
2023-01-01T20:25:20.118Z,9.11
2023-01-01T20:28:40.982Z,9.24
2023-01-01T20:31:43.986Z,9.26
2023-01-01T20:34:46.449Z,9.16
2023-01-01T20:37:48.761Z,9.29
2023-01-01T20:40:51.037Z,9.46
2023-01-01T20:43:55.397Z,9.55
2023-01-01T20:46:57.696Z,9.82
2023-01-01T20:50:00.098Z,9.72
2023-01-01T20:53:02.526Z,9.62
2023-01-01T20:56:05.119Z,9.57
2023-01-01T20:59:31.377Z,9.49
2023-01-01T21:02:30.203Z,9.42
2023-01-01T21:05:32.620Z,9.29
2023-01-01T21:08:35.031Z,9.26
2023-01-01T21:11:37.532Z,9.32
2023-01-01T21:14:39.860Z,9.25
2023-01-01T21:17:43.103Z,9.25
2023-01-01T21:20:47.285Z,9.16
2023-01-01T21:23:50.004Z,9.01
2023-01-01T21:26:54.944Z,9.09
2023-01-01T21:29:58.060Z,9.05
2023-01-01T21:33:02.249Z,9.25
2023-01-01T21:36:19.296Z,9.20
2023-01-01T21:39:28.512Z,9.23
2023-01-01T21:42:31.717Z,9.32
2023-01-01T21:45:37.410Z,9.18
2023-01-01T21:48:44.512Z,9.01
2023-01-01T21:51:53.841Z,8.95
2023-01-01T21:54:57.929Z,8.91
2023-01-01T21:58:22.497Z,8.87
2023-01-01T22:01:30.862Z,8.76
2023-01-01T22:04:38.845Z,8.78
2023-01-01T22:07:58.482Z,8.74
2023-01-01T22:11:02.068Z,8.79
2023-01-01T22:14:11.681Z,8.78
2023-01-01T22:17:16.639Z,8.81
2023-01-01T22:20:24.929Z,8.87
2023-01-01T22:23:38.742Z,8.96
2023-01-01T22:26:41.170Z,8.99
2023-01-01T22:29:44.908Z,8.92
2023-01-01T22:32:51.277Z,8.94
2023-01-01T22:35:57.915Z,8.96
2023-01-01T22:39:05.210Z,9.02
2023-01-01T22:42:12.928Z,9.18
2023-01-01T22:45:17.062Z,9.21
2023-01-01T22:48:24.846Z,9.32
2023-01-01T22:51:32.940Z,9.19
2023-01-01T22:54:35.381Z,9.22
2023-01-01T22:57:37.606Z,9.09
2023-01-01T23:00:39.967Z,9.02
2023-01-01T23:03:42.307Z,8.93
2023-01-01T23:06:44.647Z,8.92
2023-01-01T23:09:47.144Z,9.00
2023-01-01T23:12:50.461Z,8.96
2023-01-01T23:16:01.849Z,8.82
2023-01-01T23:19:04.789Z,8.77
2023-01-01T23:22:07.207Z,8.69
2023-01-01T23:25:12.488Z,8.78
2023-01-01T23:28:15.041Z,8.70
2023-01-01T23:31:25.321Z,8.64
2023-01-01T23:34:28.753Z,8.69
2023-01-01T23:37:31.339Z,8.70
2023-01-01T23:40:33.780Z,8.72
2023-01-01T23:43:42.800Z,8.75
2023-01-01T23:46:46.114Z,8.75
2023-01-01T23:49:48.534Z,8.95
2023-01-01T23:52:51.015Z,8.93
2023-01-01T23:55:53.442Z,9.01
2023-01-01T23:58:55.772Z,8.89
